sensor_id;sensor_type;location;lat;lon;timestamp;temperature;humidity
6958;DHT22;50346;51.268;15.942;2022-09-03T00:02:44;14.50;99.90
6958;DHT22;50346;51.268;15.942;2022-09-03T00:05:23;14.50;99.90
6958;DHT22;50346;51.268;15.942;2022-09-03T00:10:28;14.50;1.00
6958;DHT22;50346;51.268;15.942;2022-09-03T00:12:58;14.50;99.90
6958;DHT22;50346;51.268;15.942;2022-09-03T00:15:25;14.50;1.00
6958;DHT22;50346;51.268;15.942;2022-09-03T00:18:01;14.50;1.00
6958;DHT22;50346;51.268;15.942;2022-09-03T00:23:05;14.50;99.90
6958;DHT22;50346;51.268;15.942;2022-09-03T00:28:10;14.50;99.90
6958;DHT22;50346;51.268;15.942;2022-09-03T00:30:38;14.50;1.00
6958;DHT22;50346;51.268;15.942;2022-09-03T00:33:21;14.50;1.00
6958;DHT22;50346;51.268;15.942;2022-09-03T00:36:13;14.40;1.00
6958;DHT22;50346;51.268;15.942;2022-09-03T00:38:40;14.40;5.20
6958;DHT22;50346;51.268;15.942;2022-09-03T00:43:51;14.30;99.90
6958;DHT22;50346;51.268;15.942;2022-09-03T00:46:25;14.30;99.90
6958;DHT22;50346;51.268;15.942;2022-09-03T00:51:56;14.30;99.90
6958;DHT22;50346;51.268;15.942;2022-09-03T00:54:40;14.30;1.00
6958;DHT22;50346;51.268;15.942;2022-09-03T01:13:41;14.10;99.90
6958;DHT22;50346;51.268;15.942;2022-09-03T01:21:47;14.10;1.00
6958;DHT22;50346;51.268;15.942;2022-09-03T01:27:17;14.00;1.00
6958;DHT22;50346;51.268;15.942;2022-09-03T01:30:10;14.00;9.20
6958;DHT22;50346;51.268;15.942;2022-09-03T01:35:29;13.90;1.00
6958;DHT22;50346;51.268;15.942;2022-09-03T01:41:10;13.80;1.00
6958;DHT22;50346;51.268;15.942;2022-09-03T01:46:39;13.60;99.90
6958;DHT22;50346;51.268;15.942;2022-09-03T01:51:54;13.60;99.90
6958;DHT22;50346;51.268;15.942;2022-09-03T01:55:05;13.50;99.90
6958;DHT22;50346;51.268;15.942;2022-09-03T02:00:18;13.50;99.90
6958;DHT22;50346;51.268;15.942;2022-09-03T02:02:46;13.50;99.90
6958;DHT22;50346;51.268;15.942;2022-09-03T02:05:25;13.50;99.90
6958;DHT22;50346;51.268;15.942;2022-09-03T02:07:59;13.50;99.90
6958;DHT22;50346;51.268;15.942;2022-09-03T02:10:42;13.40;99.90
6958;DHT22;50346;51.268;15.942;2022-09-03T02:13:22;13.40;99.90
6958;DHT22;50346;51.268;15.942;2022-09-03T02:15:51;13.30;1.00
6958;DHT22;50346;51.268;15.942;2022-09-03T02:18:22;13.30;1.00
6958;DHT22;50346;51.268;15.942;2022-09-03T02:20:49;13.30;1.00
6958;DHT22;50346;51.268;15.942;2022-09-03T02:23:16;13.20;99.90
6958;DHT22;50346;51.268;15.942;2022-09-03T02:25:47;13.20;99.90
6958;DHT22;50346;51.268;15.942;2022-09-03T02:28:13;13.10;1.00
6958;DHT22;50346;51.268;15.942;2022-09-03T02:30:39;13.10;1.00
6958;DHT22;50346;51.268;15.942;2022-09-03T02:33:05;13.10;1.00
6958;DHT22;50346;51.268;15.942;2022-09-03T02:35:31;13.10;1.00
6958;DHT22;50346;51.268;15.942;2022-09-03T02:38:17;13.00;1.00
6958;DHT22;50346;51.268;15.942;2022-09-03T02:40:44;12.90;1.00
6958;DHT22;50346;51.268;15.942;2022-09-03T02:43:38;12.90;1.00
6958;DHT22;50346;51.268;15.942;2022-09-03T02:46:08;12.80;1.00
6958;DHT22;50346;51.268;15.942;2022-09-03T02:48:34;12.80;1.00
6958;DHT22;50346;51.268;15.942;2022-09-03T02:51:00;12.70;1.00
6958;DHT22;50346;51.268;15.942;2022-09-03T02:53:26;12.60;1.00
6958;DHT22;50346;51.268;15.942;2022-09-03T03:03:15;12.40;1.00
6958;DHT22;50346;51.268;15.942;2022-09-03T03:08:09;12.30;1.00
6958;DHT22;50346;51.268;15.942;2022-09-03T03:10:36;12.20;1.00
6958;DHT22;50346;51.268;15.942;2022-09-03T03:13:03;12.20;1.00
6958;DHT22;50346;51.268;15.942;2022-09-03T03:15:28;12.10;1.00
6958;DHT22;50346;51.268;15.942;2022-09-03T03:17:55;12.10;1.00
6958;DHT22;50346;51.268;15.942;2022-09-03T03:20:21;12.10;1.00
6958;DHT22;50346;51.268;15.942;2022-09-03T03:25:13;11.90;1.00
6958;DHT22;50346;51.268;15.942;2022-09-03T03:27:39;12.00;1.00
6958;DHT22;50346;51.268;15.942;2022-09-03T03:30:07;12.00;1.00
6958;DHT22;50346;51.268;15.942;2022-09-03T03:32:37;11.90;1.00
6958;DHT22;50346;51.268;15.942;2022-09-03T03:35:04;11.90;1.00
6958;DHT22;50346;51.268;15.942;2022-09-03T03:37:30;11.80;1.00
6958;DHT22;50346;51.268;15.942;2022-09-03T03:39:56;11.80;1.00
6958;DHT22;50346;51.268;15.942;2022-09-03T03:42:22;11.70;1.00
6958;DHT22;50346;51.268;15.942;2022-09-03T03:44:47;11.70;1.00
6958;DHT22;50346;51.268;15.942;2022-09-03T03:47:13;11.60;1.00
6958;DHT22;50346;51.268;15.942;2022-09-03T03:49:41;11.60;1.00
6958;DHT22;50346;51.268;15.942;2022-09-03T03:54:33;11.50;1.00
6958;DHT22;50346;51.268;15.942;2022-09-03T03:56:58;11.50;1.00
6958;DHT22;50346;51.268;15.942;2022-09-03T03:59:24;11.50;1.00
6958;DHT22;50346;51.268;15.942;2022-09-03T04:01:50;11.40;1.00
6958;DHT22;50346;51.268;15.942;2022-09-03T04:04:16;11.40;1.00
6958;DHT22;50346;51.268;15.942;2022-09-03T04:06:42;11.30;4.40
6958;DHT22;50346;51.268;15.942;2022-09-03T04:09:07;11.30;3.70
6958;DHT22;50346;51.268;15.942;2022-09-03T04:11:33;11.30;10.50
6958;DHT22;50346;51.268;15.942;2022-09-03T04:13:59;11.20;19.40
6958;DHT22;50346;51.268;15.942;2022-09-03T04:16:27;11.20;1.00
6958;DHT22;50346;51.268;15.942;2022-09-03T04:18:54;11.20;1.00
6958;DHT22;50346;51.268;15.942;2022-09-03T04:23:48;11.10;9.40
6958;DHT22;50346;51.268;15.942;2022-09-03T04:26:20;11.10;18.80
6958;DHT22;50346;51.268;15.942;2022-09-03T04:28:46;11.10;21.00
6958;DHT22;50346;51.268;15.942;2022-09-03T04:31:15;11.10;21.50
6958;DHT22;50346;51.268;15.942;2022-09-03T04:33:41;11.10;23.40
6958;DHT22;50346;51.268;15.942;2022-09-03T04:38:37;11.10;24.70
6958;DHT22;50346;51.268;15.942;2022-09-03T04:41:04;11.10;24.00
6958;DHT22;50346;51.268;15.942;2022-09-03T04:43:30;11.10;23.30
6958;DHT22;50346;51.268;15.942;2022-09-03T04:45:57;11.20;21.70
6958;DHT22;50346;51.268;15.942;2022-09-03T04:48:24;11.20;20.80
6958;DHT22;50346;51.268;15.942;2022-09-03T04:50:49;11.20;20.50
6958;DHT22;50346;51.268;15.942;2022-09-03T04:53:15;11.20;19.20
6958;DHT22;50346;51.268;15.942;2022-09-03T04:55:41;11.30;17.20
6958;DHT22;50346;51.268;15.942;2022-09-03T04:58:06;11.30;14.70
6958;DHT22;50346;51.268;15.942;2022-09-03T05:00:32;11.40;9.70
6958;DHT22;50346;51.268;15.942;2022-09-03T05:03:01;11.40;2.80
6958;DHT22;50346;51.268;15.942;2022-09-03T05:05:32;11.50;1.00
6958;DHT22;50346;51.268;15.942;2022-09-03T05:07:59;11.50;1.00
6958;DHT22;50346;51.268;15.942;2022-09-03T05:10:26;11.60;1.00
6958;DHT22;50346;51.268;15.942;2022-09-03T05:13:04;11.60;1.00
6958;DHT22;50346;51.268;15.942;2022-09-03T05:15:31;11.70;1.00
6958;DHT22;50346;51.268;15.942;2022-09-03T05:18:02;11.70;1.00
6958;DHT22;50346;51.268;15.942;2022-09-03T05:20:29;11.80;1.00
6958;DHT22;50346;51.268;15.942;2022-09-03T05:22:55;11.90;1.00
6958;DHT22;50346;51.268;15.942;2022-09-03T05:25:22;11.90;1.00
6958;DHT22;50346;51.268;15.942;2022-09-03T05:27:48;12.00;1.00
6958;DHT22;50346;51.268;15.942;2022-09-03T05:30:14;12.10;1.00
6958;DHT22;50346;51.268;15.942;2022-09-03T05:32:40;12.10;1.00
6958;DHT22;50346;51.268;15.942;2022-09-03T05:35:07;12.20;1.00
6958;DHT22;50346;51.268;15.942;2022-09-03T05:37:33;12.20;1.00
6958;DHT22;50346;51.268;15.942;2022-09-03T05:39:59;12.30;1.00
6958;DHT22;50346;51.268;15.942;2022-09-03T05:42:24;12.30;1.00
6958;DHT22;50346;51.268;15.942;2022-09-03T05:44:51;12.30;1.00
6958;DHT22;50346;51.268;15.942;2022-09-03T05:47:17;12.30;1.00
6958;DHT22;50346;51.268;15.942;2022-09-03T05:49:42;12.40;1.00
6958;DHT22;50346;51.268;15.942;2022-09-03T05:52:08;12.40;1.00
6958;DHT22;50346;51.268;15.942;2022-09-03T05:54:34;12.40;1.00
6958;DHT22;50346;51.268;15.942;2022-09-03T05:57:00;12.50;1.00
6958;DHT22;50346;51.268;15.942;2022-09-03T05:59:25;12.50;1.00
6958;DHT22;50346;51.268;15.942;2022-09-03T06:01:51;12.60;1.00
6958;DHT22;50346;51.268;15.942;2022-09-03T06:04:17;12.70;1.00
6958;DHT22;50346;51.268;15.942;2022-09-03T06:06:44;12.70;1.00
6958;DHT22;50346;51.268;15.942;2022-09-03T06:09:12;12.80;1.00
6958;DHT22;50346;51.268;15.942;2022-09-03T06:11:39;12.80;1.00
6958;DHT22;50346;51.268;15.942;2022-09-03T06:14:07;12.80;1.00
6958;DHT22;50346;51.268;15.942;2022-09-03T06:16:35;12.90;99.90
6958;DHT22;50346;51.268;15.942;2022-09-03T06:19:02;13.00;99.90
6958;DHT22;50346;51.268;15.942;2022-09-03T06:21:28;13.00;99.90
6958;DHT22;50346;51.268;15.942;2022-09-03T06:23:55;13.10;99.90
6958;DHT22;50346;51.268;15.942;2022-09-03T06:26:22;13.10;99.90
6958;DHT22;50346;51.268;15.942;2022-09-03T06:28:48;13.20;99.90
6958;DHT22;50346;51.268;15.942;2022-09-03T06:31:18;13.20;99.90
6958;DHT22;50346;51.268;15.942;2022-09-03T06:33:45;13.30;99.90
6958;DHT22;50346;51.268;15.942;2022-09-03T06:36:14;13.30;55.50
6958;DHT22;50346;51.268;15.942;2022-09-03T06:38:41;13.40;1.00
6958;DHT22;50346;51.268;15.942;2022-09-03T06:41:15;13.50;1.00
6958;DHT22;50346;51.268;15.942;2022-09-03T06:43:48;13.50;99.90
6958;DHT22;50346;51.268;15.942;2022-09-03T06:46:20;13.50;1.00
6958;DHT22;50346;51.268;15.942;2022-09-03T06:48:46;13.60;99.90
6958;DHT22;50346;51.268;15.942;2022-09-03T06:51:15;13.70;99.90
6958;DHT22;50346;51.268;15.942;2022-09-03T06:53:43;13.70;1.00
6958;DHT22;50346;51.268;15.942;2022-09-03T06:56:11;13.80;1.00
6958;DHT22;50346;51.268;15.942;2022-09-03T06:58:42;13.90;99.90
6958;DHT22;50346;51.268;15.942;2022-09-03T07:01:16;14.00;1.00
6958;DHT22;50346;51.268;15.942;2022-09-03T07:06:14;14.10;1.00
6958;DHT22;50346;51.268;15.942;2022-09-03T07:08:41;14.10;1.00
6958;DHT22;50346;51.268;15.942;2022-09-03T07:11:12;14.30;99.90
6958;DHT22;50346;51.268;15.942;2022-09-03T07:13:40;14.30;1.00
6958;DHT22;50346;51.268;15.942;2022-09-03T07:16:26;14.50;99.90
6958;DHT22;50346;51.268;15.942;2022-09-03T07:18:52;14.50;1.00
6958;DHT22;50346;51.268;15.942;2022-09-03T07:21:20;14.60;1.00
6958;DHT22;50346;51.268;15.942;2022-09-03T07:23:47;14.80;1.00
6958;DHT22;50346;51.268;15.942;2022-09-03T07:26:15;14.90;99.90
6958;DHT22;50346;51.268;15.942;2022-09-03T07:28:42;15.00;99.90
6958;DHT22;50346;51.268;15.942;2022-09-03T07:41:06;15.40;1.00
6958;DHT22;50346;51.268;15.942;2022-09-03T07:46:05;15.60;1.00
6958;DHT22;50346;51.268;15.942;2022-09-03T07:48:31;15.70;1.00
6958;DHT22;50346;51.268;15.942;2022-09-03T07:51:00;15.80;1.00
6958;DHT22;50346;51.268;15.942;2022-09-03T07:53:27;15.90;99.90
6958;DHT22;50346;51.268;15.942;2022-09-03T07:55:59;16.10;99.90
6958;DHT22;50346;51.268;15.942;2022-09-03T07:58:28;16.10;99.90
6958;DHT22;50346;51.268;15.942;2022-09-03T08:00:53;16.20;99.90
6958;DHT22;50346;51.268;15.942;2022-09-03T08:03:20;16.30;99.90
6958;DHT22;50346;51.268;15.942;2022-09-03T08:05:46;16.40;99.90
6958;DHT22;50346;51.268;15.942;2022-09-03T08:08:12;16.50;99.90
6958;DHT22;50346;51.268;15.942;2022-09-03T08:10:39;16.60;99.90
6958;DHT22;50346;51.268;15.942;2022-09-03T08:13:05;16.60;99.90
6958;DHT22;50346;51.268;15.942;2022-09-03T08:15:32;16.70;99.90
6958;DHT22;50346;51.268;15.942;2022-09-03T08:17:59;16.80;99.90
6958;DHT22;50346;51.268;15.942;2022-09-03T08:20:25;16.80;99.90
6958;DHT22;50346;51.268;15.942;2022-09-03T08:22:52;16.90;99.90
6958;DHT22;50346;51.268;15.942;2022-09-03T08:25:18;17.00;99.90
6958;DHT22;50346;51.268;15.942;2022-09-03T08:27:43;17.00;99.90
6958;DHT22;50346;51.268;15.942;2022-09-03T08:30:09;17.10;99.90
6958;DHT22;50346;51.268;15.942;2022-09-03T08:32:37;17.20;99.90
6958;DHT22;50346;51.268;15.942;2022-09-03T08:35:04;17.30;99.90
6958;DHT22;50346;51.268;15.942;2022-09-03T08:37:30;17.40;99.90
6958;DHT22;50346;51.268;15.942;2022-09-03T08:45:00;17.70;99.90
6958;DHT22;50346;51.268;15.942;2022-09-03T08:47:50;17.70;99.90
6958;DHT22;50346;51.268;15.942;2022-09-03T08:52:46;17.80;99.90
6958;DHT22;50346;51.268;15.942;2022-09-03T08:57:52;17.90;99.90
6958;DHT22;50346;51.268;15.942;2022-09-03T09:00:21;17.90;99.90
6958;DHT22;50346;51.268;15.942;2022-09-03T09:05:44;18.00;99.90
6958;DHT22;50346;51.268;15.942;2022-09-03T09:08:27;18.00;99.90
6958;DHT22;50346;51.268;15.942;2022-09-03T09:11:09;18.10;99.90
6958;DHT22;50346;51.268;15.942;2022-09-03T09:13:58;18.10;99.90
6958;DHT22;50346;51.268;15.942;2022-09-03T09:21:52;18.40;99.90
6958;DHT22;50346;51.268;15.942;2022-09-03T09:24:22;18.40;99.90
6958;DHT22;50346;51.268;15.942;2022-09-03T09:26:50;18.50;99.90
6958;DHT22;50346;51.268;15.942;2022-09-03T09:29:19;18.60;99.90
6958;DHT22;50346;51.268;15.942;2022-09-03T09:31:44;18.60;99.90
6958;DHT22;50346;51.268;15.942;2022-09-03T09:34:10;18.70;99.90
6958;DHT22;50346;51.268;15.942;2022-09-03T09:36:52;18.80;56.20
6958;DHT22;50346;51.268;15.942;2022-09-03T09:39:18;18.80;52.70
6958;DHT22;50346;51.268;15.942;2022-09-03T09:42:00;18.90;42.80
6958;DHT22;50346;51.268;15.942;2022-09-03T09:44:34;18.90;99.90
6958;DHT22;50346;51.268;15.942;2022-09-03T09:47:06;18.90;99.90
6958;DHT22;50346;51.268;15.942;2022-09-03T09:49:36;18.90;99.90
6958;DHT22;50346;51.268;15.942;2022-09-03T09:52:06;18.90;99.90
6958;DHT22;50346;51.268;15.942;2022-09-03T09:54:32;18.90;99.90
6958;DHT22;50346;51.268;15.942;2022-09-03T09:57:21;19.00;49.50
6958;DHT22;50346;51.268;15.942;2022-09-03T09:59:45;19.10;99.90
6958;DHT22;50346;51.268;15.942;2022-09-03T10:04:37;19.20;3.80
6958;DHT22;50346;51.268;15.942;2022-09-03T10:07:37;19.30;9.00
6958;DHT22;50346;51.268;15.942;2022-09-03T10:10:21;19.30;1.00
6958;DHT22;50346;51.268;15.942;2022-09-03T10:12:52;19.40;1.00
6958;DHT22;50346;51.268;15.942;2022-09-03T10:15:39;19.40;1.00
6958;DHT22;50346;51.268;15.942;2022-09-03T10:24:02;19.60;56.00
6958;DHT22;50346;51.268;15.942;2022-09-03T10:26:28;19.70;99.90
6958;DHT22;50346;51.268;15.942;2022-09-03T10:28:57;19.80;1.00
6958;DHT22;50346;51.268;15.942;2022-09-03T10:36:49;20.00;1.00
6958;DHT22;50346;51.268;15.942;2022-09-03T10:39:23;20.10;17.30
6958;DHT22;50346;51.268;15.942;2022-09-03T10:50:22;20.50;1.00
6958;DHT22;50346;51.268;15.942;2022-09-03T10:53:12;20.70;1.00
6958;DHT22;50346;51.268;15.942;2022-09-03T10:56:04;20.80;1.00
6958;DHT22;50346;51.268;15.942;2022-09-03T11:06:52;21.30;1.00
6958;DHT22;50346;51.268;15.942;2022-09-03T11:09:38;21.40;1.00
6958;DHT22;50346;51.268;15.942;2022-09-03T11:12:22;21.40;1.00
6958;DHT22;50346;51.268;15.942;2022-09-03T11:14:55;21.50;1.00
6958;DHT22;50346;51.268;15.942;2022-09-03T11:17:40;21.60;1.00
6958;DHT22;50346;51.268;15.942;2022-09-03T11:20:13;21.50;1.00
6958;DHT22;50346;51.268;15.942;2022-09-03T11:22:40;20.70;1.00
6958;DHT22;50346;51.268;15.942;2022-09-03T11:25:07;20.20;1.00
6958;DHT22;50346;51.268;15.942;2022-09-03T11:30:12;20.40;1.00
6958;DHT22;50346;51.268;15.942;2022-09-03T11:40:33;21.40;1.00
6958;DHT22;50346;51.268;15.942;2022-09-03T11:51:02;22.10;1.00
6958;DHT22;50346;51.268;15.942;2022-09-03T11:53:35;22.20;1.00
6958;DHT22;50346;51.268;15.942;2022-09-03T11:58:42;22.80;1.00
6958;DHT22;50346;51.268;15.942;2022-09-03T12:09:05;23.40;1.00
6958;DHT22;50346;51.268;15.942;2022-09-03T12:20:42;23.20;99.90
6958;DHT22;50346;51.268;15.942;2022-09-03T12:23:13;23.20;99.90
6958;DHT22;50346;51.268;15.942;2022-09-03T12:25:43;23.40;99.90
6958;DHT22;50346;51.268;15.942;2022-09-03T12:28:17;23.50;99.90
6958;DHT22;50346;51.268;15.942;2022-09-03T12:30:45;23.60;99.90
6958;DHT22;50346;51.268;15.942;2022-09-03T12:33:15;23.50;99.90
6958;DHT22;50346;51.268;15.942;2022-09-03T12:35:41;23.60;99.90
6958;DHT22;50346;51.268;15.942;2022-09-03T12:38:07;23.70;1.00
6958;DHT22;50346;51.268;15.942;2022-09-03T12:40:32;23.80;1.00
6958;DHT22;50346;51.268;15.942;2022-09-03T12:43:15;23.80;1.00
6958;DHT22;50346;51.268;15.942;2022-09-03T12:45:44;23.90;1.00
6958;DHT22;50346;51.268;15.942;2022-09-03T12:48:14;23.90;1.00
6958;DHT22;50346;51.268;15.942;2022-09-03T12:50:41;24.00;1.00
6958;DHT22;50346;51.268;15.942;2022-09-03T12:53:08;24.10;1.00
6958;DHT22;50346;51.268;15.942;2022-09-03T12:55:44;24.10;1.00
6958;DHT22;50346;51.268;15.942;2022-09-03T12:58:45;24.20;1.00
6958;DHT22;50346;51.268;15.942;2022-09-03T13:01:11;24.10;1.00
6958;DHT22;50346;51.268;15.942;2022-09-03T13:03:48;24.10;1.00
6958;DHT22;50346;51.268;15.942;2022-09-03T13:06:18;24.10;1.00
6958;DHT22;50346;51.268;15.942;2022-09-03T13:08:47;24.20;1.00
6958;DHT22;50346;51.268;15.942;2022-09-03T13:11:20;24.20;1.00
6958;DHT22;50346;51.268;15.942;2022-09-03T13:13:55;24.30;1.00
6958;DHT22;50346;51.268;15.942;2022-09-03T13:37:44;25.70;1.00
6958;DHT22;50346;51.268;15.942;2022-09-03T13:40:21;25.90;1.00
6958;DHT22;50346;51.268;15.942;2022-09-03T13:42:55;26.00;1.00
6958;DHT22;50346;51.268;15.942;2022-09-03T13:45:44;25.90;1.00
6958;DHT22;50346;51.268;15.942;2022-09-03T13:48:25;25.70;1.00
6958;DHT22;50346;51.268;15.942;2022-09-03T13:51:17;25.50;1.00
6958;DHT22;50346;51.268;15.942;2022-09-03T13:53:58;25.30;1.00
6958;DHT22;50346;51.268;15.942;2022-09-03T13:56:43;25.20;38.50
6958;DHT22;50346;51.268;15.942;2022-09-03T13:59:24;25.10;59.10
6958;DHT22;50346;51.268;15.942;2022-09-03T14:04:27;25.40;99.90
6958;DHT22;50346;51.268;15.942;2022-09-03T14:07:02;25.60;37.60
6958;DHT22;50346;51.268;15.942;2022-09-03T14:12:33;26.20;1.00
6958;DHT22;50346;51.268;15.942;2022-09-03T14:15:21;26.50;1.00
6958;DHT22;50346;51.268;15.942;2022-09-03T14:18:22;26.60;1.00
6958;DHT22;50346;51.268;15.942;2022-09-03T14:20:57;26.40;1.00
6958;DHT22;50346;51.268;15.942;2022-09-03T14:42:21;34.80;1.00
6958;DHT22;50346;51.268;15.942;2022-09-03T14:50:13;34.30;1.00
6958;DHT22;50346;51.268;15.942;2022-09-03T14:55:48;36.00;1.00
6958;DHT22;50346;51.268;15.942;2022-09-03T15:01:28;37.80;99.90
6958;DHT22;50346;51.268;15.942;2022-09-03T15:09:31;37.30;1.00
6958;DHT22;50346;51.268;15.942;2022-09-03T15:14:53;36.40;1.00
6958;DHT22;50346;51.268;15.942;2022-09-03T15:38:01;41.10;1.00
6958;DHT22;50346;51.268;15.942;2022-09-03T15:40:34;41.20;1.00
6958;DHT22;50346;51.268;15.942;2022-09-03T15:50:52;41.70;94.20
6958;DHT22;50346;51.268;15.942;2022-09-03T15:56:19;41.50;1.00
6958;DHT22;50346;51.268;15.942;2022-09-03T15:59:14;40.60;1.00
6958;DHT22;50346;51.268;15.942;2022-09-03T16:04:38;37.60;1.00
6958;DHT22;50346;51.268;15.942;2022-09-03T16:20:40;30.00;1.00
6958;DHT22;50346;51.268;15.942;2022-09-03T16:26:02;28.40;1.00
6958;DHT22;50346;51.268;15.942;2022-09-03T16:28:46;27.70;1.00
6958;DHT22;50346;51.268;15.942;2022-09-03T16:36:36;26.20;99.90
6958;DHT22;50346;51.268;15.942;2022-09-03T16:41:53;25.50;1.00
6958;DHT22;50346;51.268;15.942;2022-09-03T16:55:06;23.70;1.00
6958;DHT22;50346;51.268;15.942;2022-09-03T17:00:14;23.00;1.00
6958;DHT22;50346;51.268;15.942;2022-09-03T17:11:46;21.90;1.00
6958;DHT22;50346;51.268;15.942;2022-09-03T17:15:18;21.60;1.00
6958;DHT22;50346;51.268;15.942;2022-09-03T17:23:00;20.90;1.00
6958;DHT22;50346;51.268;15.942;2022-09-03T17:25:38;20.60;1.00
6958;DHT22;50346;51.268;15.942;2022-09-03T17:36:16;19.70;1.00
6958;DHT22;50346;51.268;15.942;2022-09-03T17:44:09;19.20;99.90
6958;DHT22;50346;51.268;15.942;2022-09-03T17:51:50;18.70;1.00
6958;DHT22;50346;51.268;15.942;2022-09-03T18:05:25;18.00;1.00
6958;DHT22;50346;51.268;15.942;2022-09-03T18:13:57;17.70;99.90
6958;DHT22;50346;51.268;15.942;2022-09-03T18:16:26;17.60;99.90
6958;DHT22;50346;51.268;15.942;2022-09-03T18:19:23;17.50;99.90
6958;DHT22;50346;51.268;15.942;2022-09-03T18:21:46;17.40;99.90
6958;DHT22;50346;51.268;15.942;2022-09-03T18:27:38;17.30;99.90
6958;DHT22;50346;51.268;15.942;2022-09-03T18:30:24;17.20;99.90
6958;DHT22;50346;51.268;15.942;2022-09-03T18:33:08;17.20;99.90
6958;DHT22;50346;51.268;15.942;2022-09-03T18:35:52;17.10;99.90
6958;DHT22;50346;51.268;15.942;2022-09-03T18:38:38;17.00;99.90
6958;DHT22;50346;51.268;15.942;2022-09-03T18:44:30;16.90;1.00
6958;DHT22;50346;51.268;15.942;2022-09-03T18:50:29;16.80;1.00
6958;DHT22;50346;51.268;15.942;2022-09-03T18:53:17;16.80;1.00
6958;DHT22;50346;51.268;15.942;2022-09-03T19:11:54;16.50;99.90
6958;DHT22;50346;51.268;15.942;2022-09-03T19:14:53;16.40;1.00
6958;DHT22;50346;51.268;15.942;2022-09-03T19:18:08;16.30;1.00
6958;DHT22;50346;51.268;15.942;2022-09-03T19:21:19;16.30;1.00
6958;DHT22;50346;51.268;15.942;2022-09-03T19:24:05;16.20;99.90
6958;DHT22;50346;51.268;15.942;2022-09-03T19:33:05;16.10;1.00
6958;DHT22;50346;51.268;15.942;2022-09-03T19:45:37;15.90;99.90
6958;DHT22;50346;51.268;15.942;2022-09-03T19:48:39;15.80;1.00
6958;DHT22;50346;51.268;15.942;2022-09-03T19:51:31;15.80;99.90
6958;DHT22;50346;51.268;15.942;2022-09-03T19:54:21;15.70;99.90
6958;DHT22;50346;51.268;15.942;2022-09-03T19:57:08;15.70;1.00
6958;DHT22;50346;51.268;15.942;2022-09-03T19:59:55;15.60;99.90
6958;DHT22;50346;51.268;15.942;2022-09-03T20:02:40;15.60;1.00
6958;DHT22;50346;51.268;15.942;2022-09-03T20:05:25;15.50;28.60
6958;DHT22;50346;51.268;15.942;2022-09-03T20:08:12;15.50;99.90
6958;DHT22;50346;51.268;15.942;2022-09-03T20:10:59;15.40;1.00
6958;DHT22;50346;51.268;15.942;2022-09-03T20:13:26;15.40;1.00
6958;DHT22;50346;51.268;15.942;2022-09-03T20:16:00;15.40;73.80
6958;DHT22;50346;51.268;15.942;2022-09-03T20:21:13;15.30;99.90
6958;DHT22;50346;51.268;15.942;2022-09-03T20:37:40;15.20;1.00
6958;DHT22;50346;51.268;15.942;2022-09-03T20:48:59;15.20;99.90
6958;DHT22;50346;51.268;15.942;2022-09-03T20:51:40;15.10;99.90
6958;DHT22;50346;51.268;15.942;2022-09-03T21:00:15;15.00;99.90
6958;DHT22;50346;51.268;15.942;2022-09-03T21:03:15;15.00;99.90
6958;DHT22;50346;51.268;15.942;2022-09-03T21:11:14;14.90;99.90
6958;DHT22;50346;51.268;15.942;2022-09-03T21:16:45;14.90;99.90
6958;DHT22;50346;51.268;15.942;2022-09-03T21:19:35;14.90;99.90
6958;DHT22;50346;51.268;15.942;2022-09-03T21:25:22;14.80;99.90
6958;DHT22;50346;51.268;15.942;2022-09-03T21:27:48;14.80;99.90
6958;DHT22;50346;51.268;15.942;2022-09-03T21:30:17;14.80;99.90
6958;DHT22;50346;51.268;15.942;2022-09-03T21:32:54;14.80;1.00
6958;DHT22;50346;51.268;15.942;2022-09-03T21:35:33;14.70;1.00
6958;DHT22;50346;51.268;15.942;2022-09-03T21:38:21;14.80;1.00
6958;DHT22;50346;51.268;15.942;2022-09-03T21:40:56;14.70;1.00
6958;DHT22;50346;51.268;15.942;2022-09-03T21:43:31;14.70;1.00
6958;DHT22;50346;51.268;15.942;2022-09-03T21:48:39;14.70;1.00
6958;DHT22;50346;51.268;15.942;2022-09-03T21:51:20;14.70;1.00
6958;DHT22;50346;51.268;15.942;2022-09-03T21:54:32;14.60;1.00
6958;DHT22;50346;51.268;15.942;2022-09-03T22:02:16;14.50;1.00
6958;DHT22;50346;51.268;15.942;2022-09-03T22:04:46;14.50;1.00
6958;DHT22;50346;51.268;15.942;2022-09-03T22:12:39;14.20;1.00
6958;DHT22;50346;51.268;15.942;2022-09-03T22:17:53;14.10;1.00
6958;DHT22;50346;51.268;15.942;2022-09-03T22:31:21;14.10;1.00
6958;DHT22;50346;51.268;15.942;2022-09-03T23:22:21;13.40;14.60
6958;DHT22;50346;51.268;15.942;2022-09-03T23:48:48;12.90;14.20
6958;DHT22;50346;51.268;15.942;2022-09-03T23:50:46;12.90;20.90
6958;DHT22;50346;51.268;15.942;2022-09-03T23:53:39;12.90;24.90
